createdAt,value
2022-11-17T00:01:28.170Z,99.02
2022-11-17T00:06:23.161Z,99.59
2022-11-17T00:11:18.251Z,99.67
2022-11-17T00:16:18.176Z,99.43
2022-11-17T00:21:24.389Z,99.80
2022-11-17T00:26:33.159Z,97.22
2022-11-17T00:31:46.022Z,95.42
2022-11-17T00:36:41.663Z,93.57
2022-11-17T00:41:38.493Z,92.63
2022-11-17T00:46:33.699Z,89.85
2022-11-17T00:51:33.740Z,90.65
2022-11-17T00:56:30.385Z,90.18
2022-11-17T01:01:31.650Z,89.28
2022-11-17T01:06:30.317Z,89.03
2022-11-17T01:11:33.868Z,89.48
2022-11-17T01:16:37.182Z,89.31
2022-11-17T01:21:32.487Z,89.72
2022-11-17T01:26:30.815Z,88.80
2022-11-17T01:31:26.633Z,87.43
2022-11-17T01:36:25.696Z,86.18
2022-11-17T01:41:32.246Z,85.35
2022-11-17T01:46:50.359Z,84.87
2022-11-17T01:51:49.681Z,84.36
2022-11-17T01:56:48.201Z,83.84
2022-11-17T02:02:26.420Z,82.97
2022-11-17T02:07:37.055Z,83.04
2022-11-17T02:12:33.501Z,82.43
2022-11-17T02:17:38.199Z,82.88
2022-11-17T02:23:00.307Z,82.48
2022-11-17T02:34:02.713Z,82.07
2022-11-17T02:39:16.034Z,81.59
2022-11-17T02:44:44.728Z,82.31
2022-11-17T02:49:44.791Z,83.42
2022-11-17T02:54:45.366Z,85.17
2022-11-17T02:59:50.829Z,87.16
2022-11-17T03:04:52.408Z,88.75
2022-11-17T03:09:51.518Z,90.00
2022-11-17T03:14:53.854Z,90.93
2022-11-17T03:19:55.836Z,91.58
2022-11-17T03:25:07.173Z,92.68
2022-11-17T03:30:04.823Z,93.10
2022-11-17T03:35:02.218Z,93.58
2022-11-17T03:39:59.656Z,94.17
2022-11-17T03:44:57.374Z,94.33
2022-11-17T03:49:59.157Z,95.34
2022-11-17T03:54:53.401Z,95.39
2022-11-17T03:59:53.860Z,95.73
2022-11-17T04:05:07.763Z,95.68
2022-11-17T04:10:14.630Z,96.28
2022-11-17T04:15:32.398Z,96.03
2022-11-17T04:20:39.574Z,96.41
2022-11-17T04:25:52.433Z,96.61
2022-11-17T04:30:50.011Z,97.25
2022-11-17T04:35:43.690Z,97.62
2022-11-17T04:40:58.778Z,98.39
2022-11-17T04:45:52.350Z,98.86
2022-11-17T04:50:46.440Z,99.38
2022-11-17T05:01:34.350Z,100.00
2022-11-17T05:06:34.698Z,100.00
2022-11-17T05:18:06.811Z,100.00
2022-11-17T05:23:27.210Z,99.86
2022-11-17T05:29:28.562Z,94.05
2022-11-17T05:34:48.387Z,91.40
2022-11-17T05:40:29.483Z,88.66
2022-11-17T05:50:44.637Z,85.48
2022-11-17T05:55:43.328Z,84.35
2022-11-17T06:00:42.485Z,83.26
2022-11-17T06:05:43.398Z,82.00
2022-11-17T06:10:39.453Z,81.17
2022-11-17T06:15:37.632Z,80.38
2022-11-17T06:20:36.616Z,79.70
2022-11-17T06:25:38.164Z,79.41
2022-11-17T06:30:43.058Z,79.82
2022-11-17T06:35:44.174Z,79.76
2022-11-17T06:40:40.009Z,79.14
2022-11-17T06:45:37.225Z,79.91
2022-11-17T06:50:30.647Z,79.89
2022-11-17T06:55:25.784Z,79.03
2022-11-17T07:00:20.391Z,78.86
2022-11-17T07:05:13.918Z,78.79
2022-11-17T07:10:11.047Z,78.56
2022-11-17T07:15:13.888Z,77.84
2022-11-17T07:20:08.999Z,78.27
2022-11-17T07:25:33.942Z,78.33
2022-11-17T08:04:21.766Z,82.83
2022-11-17T08:09:48.687Z,85.70
2022-11-17T08:16:09.181Z,86.32
2022-11-17T09:04:42.162Z,96.88
2022-11-17T09:09:37.105Z,97.80
2022-11-17T09:14:31.646Z,98.61
2022-11-17T09:19:25.061Z,99.02
2022-11-17T09:24:18.517Z,99.58
2022-11-17T09:29:13.289Z,99.95
2022-11-17T09:34:06.605Z,100.00
2022-11-17T09:39:00.110Z,100.00
2022-11-17T09:44:04.015Z,100.00
2022-11-17T09:49:04.457Z,100.00
2022-11-17T09:54:03.415Z,100.00
2022-11-17T09:59:00.041Z,100.00
2022-11-17T10:04:01.775Z,100.00
2022-11-17T10:09:01.448Z,100.00
2022-11-17T10:13:58.189Z,100.00
2022-11-17T10:18:53.655Z,100.00
2022-11-17T10:23:57.727Z,100.00
2022-11-17T10:29:09.272Z,100.00
2022-11-17T10:34:03.020Z,100.00
2022-11-17T10:39:00.234Z,100.00
2022-11-17T10:44:03.196Z,100.00
2022-11-17T10:49:25.962Z,100.00
2022-11-17T10:54:24.003Z,100.00
2022-11-17T10:59:22.036Z,100.00
2022-11-17T11:04:37.452Z,98.13
2022-11-17T11:09:34.019Z,96.89
2022-11-17T11:14:34.493Z,96.33
2022-11-17T11:19:28.174Z,96.88
2022-11-17T11:24:33.364Z,97.85
2022-11-17T11:29:32.091Z,97.49
2022-11-17T11:34:49.249Z,96.44
2022-11-17T11:39:55.797Z,97.84
2022-11-17T11:45:10.897Z,97.05
2022-11-17T11:50:15.528Z,97.99
2022-11-17T11:55:21.022Z,97.50
2022-11-17T12:00:17.439Z,97.37
2022-11-17T12:05:22.759Z,97.09
2022-11-17T12:10:31.881Z,94.50
2022-11-17T12:15:40.832Z,93.19
2022-11-17T12:20:57.415Z,92.94
2022-11-17T12:25:54.612Z,90.40
2022-11-17T12:31:09.991Z,88.52
2022-11-17T12:36:36.997Z,88.50
2022-11-17T12:42:09.187Z,88.40
2022-11-17T12:47:13.879Z,89.42
2022-11-17T12:52:24.779Z,87.69
2022-11-17T12:57:26.324Z,84.47
2022-11-17T13:02:54.460Z,82.83
2022-11-17T13:07:48.210Z,83.17
2022-11-17T13:12:50.616Z,83.67
2022-11-17T13:17:45.845Z,82.70
2022-11-17T13:22:42.344Z,81.39
2022-11-17T13:27:35.769Z,82.69
2022-11-17T13:32:30.583Z,83.04
2022-11-17T13:37:27.928Z,83.14
2022-11-17T13:42:21.543Z,83.32
2022-11-17T13:47:21.704Z,82.81
2022-11-17T13:52:37.010Z,82.82
2022-11-17T13:57:56.096Z,83.93
2022-11-17T14:02:55.505Z,84.11
2022-11-17T14:07:55.169Z,84.58
2022-11-17T14:12:51.468Z,84.26
2022-11-17T14:18:39.555Z,85.42
2022-11-17T14:41:04.843Z,87.67
2022-11-17T14:46:04.649Z,88.22
2022-11-17T14:51:31.157Z,88.77
2022-11-17T14:57:09.083Z,89.92
2022-11-17T15:03:19.074Z,90.29
2022-11-17T15:21:55.574Z,90.70
2022-11-17T15:26:50.445Z,90.77
2022-11-17T15:31:48.938Z,90.83
2022-11-17T15:36:44.364Z,90.99
2022-11-17T15:41:43.378Z,91.16
2022-11-17T15:46:47.217Z,90.99
2022-11-17T15:51:54.095Z,90.93
2022-11-17T15:56:55.331Z,91.12
2022-11-17T16:02:15.337Z,90.69
2022-11-17T16:07:11.994Z,90.71
2022-11-17T16:12:07.400Z,90.79
2022-11-17T16:17:14.653Z,90.43
2022-11-17T16:22:09.619Z,90.47
2022-11-17T16:27:03.234Z,90.30
2022-11-17T16:31:57.401Z,89.79
2022-11-17T16:36:50.720Z,89.94
2022-11-17T16:41:50.012Z,89.65
2022-11-17T16:46:46.887Z,89.92
2022-11-17T16:51:50.981Z,90.59
2022-11-17T16:56:48.622Z,90.46
2022-11-17T17:01:42.261Z,90.33
2022-11-17T17:06:37.451Z,90.00
2022-11-17T17:11:32.135Z,90.05
2022-11-17T17:16:26.993Z,90.00
2022-11-17T17:21:20.914Z,90.08
2022-11-17T17:26:18.515Z,89.35
2022-11-17T17:31:24.661Z,89.11
2022-11-17T17:36:24.486Z,88.36
2022-11-17T17:41:22.179Z,87.90
2022-11-17T17:46:28.478Z,88.20
2022-11-17T17:51:25.288Z,87.91
2022-11-17T17:56:28.812Z,87.58
2022-11-17T18:01:28.349Z,86.75
2022-11-17T18:06:26.770Z,86.22
2022-11-17T18:11:22.733Z,85.79
2022-11-17T18:16:19.345Z,85.33
2022-11-17T18:21:14.279Z,85.17
2022-11-17T18:26:16.549Z,85.46
2022-11-17T18:31:15.570Z,85.10
2022-11-17T18:36:11.887Z,84.52
2022-11-17T18:41:07.744Z,84.14
2022-11-17T18:46:07.904Z,83.91
2022-11-17T18:51:20.278Z,83.43
2022-11-17T18:56:15.862Z,82.48
2022-11-17T19:01:14.786Z,81.92
2022-11-17T19:06:14.882Z,81.83
2022-11-17T19:11:15.919Z,81.49
2022-11-17T19:16:13.642Z,81.57
2022-11-17T19:21:11.691Z,81.33
2022-11-17T19:26:12.039Z,81.42
2022-11-17T19:31:17.207Z,81.30
2022-11-17T19:36:19.573Z,80.93
2022-11-17T19:41:16.459Z,80.68
2022-11-17T19:46:11.850Z,80.23
2022-11-17T19:51:20.076Z,79.40
2022-11-17T19:56:18.634Z,79.46
2022-11-17T20:01:13.996Z,79.01
2022-11-17T20:06:08.300Z,78.98
2022-11-17T20:11:08.952Z,79.05
2022-11-17T20:16:11.973Z,78.58
2022-11-17T20:21:19.868Z,79.27
2022-11-17T20:26:18.192Z,78.96
2022-11-17T20:31:17.510Z,79.14
2022-11-17T20:36:18.036Z,79.03
2022-11-17T20:41:13.163Z,78.26
2022-11-17T20:46:08.089Z,78.54
2022-11-17T20:51:04.550Z,78.91
2022-11-17T20:55:59.289Z,78.53
2022-11-17T21:00:53.350Z,78.82
2022-11-17T21:06:02.166Z,78.15
2022-11-17T21:11:37.054Z,78.23
2022-11-17T21:16:52.761Z,77.76
2022-11-17T21:28:14.657Z,78.00
2022-11-17T21:33:55.214Z,77.36
2022-11-17T21:38:56.189Z,78.58
2022-11-17T21:43:53.577Z,78.70
2022-11-17T21:48:50.745Z,78.83
2022-11-17T21:53:54.127Z,79.23
2022-11-17T21:58:58.088Z,79.94
2022-11-17T22:04:07.495Z,79.54
2022-11-17T22:09:01.562Z,79.81
2022-11-17T22:14:24.480Z,80.06
2022-11-17T22:19:53.591Z,80.06
2022-11-17T22:24:54.947Z,80.49
2022-11-17T22:29:51.533Z,81.34
2022-11-17T22:34:50.501Z,81.92
2022-11-17T22:39:46.577Z,82.78
2022-11-17T22:44:40.247Z,83.22
2022-11-17T22:49:33.933Z,83.54
2022-11-17T22:54:30.695Z,83.76
2022-11-17T22:59:24.945Z,83.15
2022-11-17T23:04:18.402Z,82.90
2022-11-17T23:09:12.702Z,82.81
2022-11-17T23:14:10.791Z,82.71
2022-11-17T23:19:04.549Z,82.23
2022-11-17T23:24:06.130Z,82.13
2022-11-17T23:28:59.586Z,82.28
2022-11-17T23:33:54.616Z,82.10
2022-11-17T23:38:48.742Z,81.96
2022-11-17T23:43:48.457Z,82.07
2022-11-17T23:48:48.882Z,82.08
2022-11-17T23:53:44.033Z,82.27
2022-11-17T23:58:40.785Z,83.25
